createdAt,value
2022-09-12T00:01:19.560Z,4.23
2022-09-12T00:03:47.690Z,4.30
2022-09-12T00:06:23.201Z,4.47
2022-09-12T00:08:51.495Z,4.33
2022-09-12T00:11:18.642Z,4.33
2022-09-12T00:13:45.534Z,5.13
2022-09-12T00:16:23.951Z,5.10
2022-09-12T00:18:51.385Z,4.77
2022-09-12T00:21:19.225Z,3.83
2022-09-12T00:23:46.807Z,5.53
2022-09-12T00:26:14.650Z,4.60
2022-09-12T00:28:41.882Z,4.90
2022-09-12T00:31:12.222Z,4.03
2022-09-12T00:33:40.252Z,3.17
2022-09-12T00:36:14.890Z,3.80
2022-09-12T00:38:43.263Z,4.97
2022-09-12T00:41:20.677Z,5.60
2022-09-12T00:43:51.113Z,6.27
2022-09-12T00:46:43.204Z,3.43
2022-09-12T00:49:37.598Z,3.40
2022-09-12T00:52:11.248Z,3.77
2022-09-12T00:54:47.981Z,6.53
2022-09-12T00:57:17.901Z,4.20
2022-09-12T00:59:50.431Z,4.20
2022-09-12T01:02:18.137Z,4.90
2022-09-12T01:04:47.718Z,7.27
2022-09-12T01:07:15.423Z,6.80
2022-09-12T01:09:45.258Z,6.03
2022-09-12T01:12:14.702Z,8.90
2022-09-12T01:14:42.607Z,3.80
2022-09-12T01:17:14.931Z,4.37
2022-09-12T01:20:17.539Z,8.53
2022-09-12T01:22:44.543Z,4.53
2022-09-12T01:25:30.081Z,4.60
2022-09-12T01:28:06.246Z,10.33
2022-09-12T01:30:57.559Z,4.23
2022-09-12T01:33:46.341Z,3.90
2022-09-12T01:36:27.600Z,4.40
2022-09-12T01:39:03.834Z,3.77
2022-09-12T01:41:43.595Z,4.27
2022-09-12T01:44:47.496Z,4.90
2022-09-12T01:47:36.789Z,4.60
2022-09-12T01:50:27.663Z,4.67
2022-09-12T01:53:08.820Z,5.27
2022-09-12T01:55:42.717Z,3.30
2022-09-12T01:58:21.515Z,2.87
2022-09-12T02:01:02.617Z,4.83
2022-09-12T02:04:09.067Z,3.37
2022-09-12T02:06:48.327Z,6.87
2022-09-12T02:09:43.921Z,4.77
2022-09-12T02:12:15.807Z,4.03
2022-09-12T02:14:48.462Z,5.50
2022-09-12T02:17:21.212Z,4.60
2022-09-12T02:20:17.806Z,4.27
2022-09-12T02:23:00.581Z,4.73
2022-09-12T02:25:29.267Z,4.93
2022-09-12T02:28:04.975Z,4.50
2022-09-12T02:30:41.246Z,4.67
2022-09-12T02:33:27.198Z,5.77
2022-09-12T02:36:01.595Z,5.47
2022-09-12T02:38:37.744Z,4.70
2022-09-12T02:41:04.915Z,8.00
2022-09-12T02:43:31.827Z,6.10
2022-09-12T02:45:59.252Z,4.80
2022-09-12T02:48:31.607Z,4.07
2022-09-12T02:50:58.786Z,4.40
2022-09-12T02:53:27.465Z,3.80
2022-09-12T02:55:54.898Z,3.43
2022-09-12T02:58:27.253Z,6.33
2022-09-12T03:01:21.462Z,3.93
2022-09-12T03:04:18.166Z,8.17
2022-09-12T03:07:28.694Z,3.00
2022-09-12T03:10:10.403Z,4.47
2022-09-12T03:12:52.441Z,5.63
2022-09-12T03:15:27.178Z,3.70
2022-09-12T03:18:05.338Z,4.90
2022-09-12T03:20:59.744Z,4.57
2022-09-12T03:23:38.579Z,5.57
2022-09-12T03:26:20.410Z,5.97
2022-09-12T03:28:49.694Z,6.53
2022-09-12T03:31:19.436Z,5.27
2022-09-12T03:33:46.476Z,6.03
2022-09-12T03:36:21.403Z,5.30
2022-09-12T03:38:48.462Z,3.43
2022-09-12T03:41:15.488Z,4.27
2022-09-12T03:43:42.948Z,4.53
2022-09-12T03:46:10.389Z,5.20
2022-09-12T03:48:37.622Z,6.83
2022-09-12T03:51:07.345Z,4.23
2022-09-12T03:53:36.414Z,5.47
2022-09-12T03:56:11.658Z,5.27
2022-09-12T03:58:39.460Z,4.30
2022-09-12T04:01:12.870Z,3.43
2022-09-12T04:03:46.920Z,5.43
2022-09-12T04:06:15.577Z,5.07
2022-09-12T04:08:43.722Z,5.30
2022-09-12T04:11:15.289Z,3.63
2022-09-12T04:13:43.929Z,4.50
2022-09-12T04:16:12.716Z,7.47
2022-09-12T04:18:40.342Z,4.40
2022-09-12T04:21:19.657Z,5.03
2022-09-12T04:23:46.940Z,5.30
2022-09-12T04:26:17.336Z,8.27
2022-09-12T04:28:46.160Z,7.17
2022-09-12T04:31:20.713Z,5.00
2022-09-12T04:33:56.524Z,7.40
2022-09-12T04:36:25.720Z,4.47
2022-09-12T04:38:53.469Z,5.40
2022-09-12T04:41:26.159Z,5.63
2022-09-12T04:43:55.964Z,8.93
2022-09-12T04:46:22.910Z,4.57
2022-09-12T04:48:54.517Z,10.07
2022-09-12T04:51:29.674Z,5.30
2022-09-12T04:54:02.363Z,7.77
2022-09-12T04:56:31.074Z,7.43
2022-09-12T04:59:00.535Z,5.70
2022-09-12T05:01:29.752Z,7.97
2022-09-12T05:03:58.736Z,8.27
2022-09-12T05:06:31.978Z,5.40
2022-09-12T05:09:00.358Z,6.80
2022-09-12T05:12:02.035Z,5.80
2022-09-12T05:14:20.620Z,7.87
2022-09-12T05:16:49.552Z,6.30
2022-09-12T05:19:17.270Z,7.07
2022-09-12T05:21:44.699Z,5.17
2022-09-12T05:24:11.653Z,5.00
2022-09-12T05:26:38.778Z,4.57
2022-09-12T05:29:07.224Z,5.37
2022-09-12T05:31:34.847Z,5.87
2022-09-12T05:34:04.624Z,5.70
2022-09-12T05:36:31.987Z,6.50
2022-09-12T05:39:02.039Z,5.43
2022-09-12T05:41:31.474Z,4.23
2022-09-12T05:44:00.910Z,5.20
2022-09-12T05:46:30.625Z,6.57
2022-09-12T05:48:58.421Z,8.30
2022-09-12T05:51:28.117Z,5.43
2022-09-12T05:53:58.571Z,4.07
2022-09-12T05:56:30.514Z,7.27
2022-09-12T05:58:58.783Z,7.90
2022-09-12T06:01:27.872Z,8.33
2022-09-12T06:03:57.701Z,5.03
2022-09-12T06:06:25.644Z,5.23
2022-09-12T06:08:55.738Z,7.20
2022-09-12T06:11:26.116Z,7.27
2022-09-12T06:13:53.525Z,5.87
2022-09-12T06:16:22.883Z,5.33
2022-09-12T06:18:58.471Z,6.53
2022-09-12T06:21:26.731Z,5.40
2022-09-12T06:23:55.016Z,5.57
2022-09-12T06:26:23.521Z,6.10
2022-09-12T06:28:51.905Z,5.70
2022-09-12T06:31:31.199Z,5.60
2022-09-12T06:34:01.501Z,8.10
2022-09-12T06:36:31.584Z,6.83
2022-09-12T06:39:01.101Z,6.83
2022-09-12T06:41:29.839Z,5.63
2022-09-12T06:43:57.545Z,5.30
2022-09-12T06:46:25.557Z,7.53
2022-09-12T06:48:52.988Z,7.00
2022-09-12T06:51:20.329Z,7.93
2022-09-12T06:53:48.763Z,7.17
2022-09-12T06:56:21.329Z,6.97
2022-09-12T06:58:51.573Z,7.70
2022-09-12T07:01:25.064Z,10.97
2022-09-12T07:03:55.863Z,8.43
2022-09-12T07:06:29.743Z,8.77
2022-09-12T07:09:01.069Z,10.60
2022-09-12T07:11:32.857Z,8.23
2022-09-12T07:14:02.138Z,7.10
2022-09-12T07:16:30.595Z,9.00
2022-09-12T07:19:02.822Z,10.87
2022-09-12T07:21:30.395Z,6.20
2022-09-12T07:23:58.266Z,8.37
2022-09-12T07:26:28.235Z,8.47
2022-09-12T07:29:12.872Z,7.90
2022-09-12T07:31:44.671Z,8.10
2022-09-12T07:34:12.195Z,9.03
2022-09-12T07:36:39.657Z,8.03
2022-09-12T07:39:06.867Z,7.10
2022-09-12T07:41:34.559Z,8.77
2022-09-12T07:44:02.899Z,5.83
2022-09-12T07:46:31.476Z,7.67
2022-09-12T07:49:01.641Z,7.43
2022-09-12T07:51:30.555Z,8.07
2022-09-12T07:53:58.862Z,8.23
2022-09-12T07:56:31.228Z,8.43
2022-09-12T07:58:58.921Z,9.93
2022-09-12T08:01:26.422Z,6.67
2022-09-12T08:03:59.975Z,6.70
2022-09-12T08:06:31.168Z,6.70
2022-09-12T08:08:59.609Z,6.50
2022-09-12T08:11:29.411Z,5.33
2022-09-12T08:13:58.161Z,6.27
2022-09-12T08:16:31.296Z,6.30
2022-09-12T08:19:01.400Z,7.47
2022-09-12T08:21:31.402Z,6.40
2022-09-12T08:24:04.436Z,6.40
2022-09-12T08:26:35.150Z,5.13
2022-09-12T08:29:02.494Z,6.13
2022-09-12T08:31:31.851Z,6.00
2022-09-12T08:33:59.197Z,10.43
2022-09-12T08:36:27.798Z,5.90
2022-09-12T08:39:00.480Z,6.40
2022-09-12T08:41:37.719Z,5.47
2022-09-12T08:44:29.669Z,6.00
2022-09-12T08:47:05.801Z,6.15
2022-09-12T08:49:38.949Z,7.07
2022-09-12T08:52:14.195Z,6.15
2022-09-12T08:54:44.871Z,5.88
2022-09-12T08:57:14.354Z,7.43
2022-09-12T08:59:44.843Z,4.70
2022-09-12T09:02:37.702Z,5.97
2022-09-12T09:05:04.917Z,7.18
2022-09-12T09:07:54.749Z,5.03
2022-09-12T09:10:44.726Z,6.47
2022-09-12T09:13:55.169Z,4.72
2022-09-12T09:16:32.187Z,7.55
2022-09-12T09:19:04.556Z,7.00
2022-09-12T09:21:44.514Z,5.20
2022-09-12T09:24:18.402Z,5.18
2022-09-12T09:27:00.697Z,4.28
2022-09-12T09:29:33.758Z,5.07
2022-09-12T09:32:05.272Z,5.75
2022-09-12T09:34:33.725Z,5.78
2022-09-12T09:37:19.971Z,4.10
2022-09-12T09:40:17.404Z,4.53
2022-09-12T09:42:59.383Z,4.03
2022-09-12T09:45:32.039Z,4.03
2022-09-12T09:48:11.063Z,4.55
2022-09-12T09:50:38.962Z,6.38
2022-09-12T09:53:14.676Z,3.20
2022-09-12T09:55:44.515Z,4.07
2022-09-12T09:58:11.383Z,3.42
2022-09-12T10:00:39.038Z,4.97
2022-09-12T10:03:13.189Z,6.25
2022-09-12T10:05:52.919Z,3.08
2022-09-12T10:08:26.406Z,3.45
2022-09-12T10:11:16.323Z,3.83
2022-09-12T10:13:54.532Z,4.40
2022-09-12T10:16:25.953Z,3.05
2022-09-12T10:18:55.332Z,5.18
2022-09-12T10:21:50.782Z,2.60
2022-09-12T10:24:25.989Z,3.50
2022-09-12T10:27:05.191Z,3.63
2022-09-12T10:29:36.159Z,6.30
2022-09-12T10:32:08.259Z,5.45
2022-09-12T10:34:39.243Z,5.78
2022-09-12T10:37:32.519Z,3.88
2022-09-12T10:40:01.031Z,3.10
2022-09-12T10:42:49.509Z,4.32
2022-09-12T10:45:37.973Z,3.42
2022-09-12T10:48:31.861Z,3.97
2022-09-12T10:51:00.337Z,4.80
2022-09-12T10:53:41.553Z,2.85
2022-09-12T10:56:19.042Z,4.60
2022-09-12T10:58:59.915Z,2.47
2022-09-12T11:01:40.302Z,3.00
2022-09-12T11:04:32.221Z,3.20
2022-09-12T11:07:21.160Z,3.83
2022-09-12T11:10:05.648Z,3.58
2022-09-12T11:12:57.201Z,2.53
2022-09-12T11:15:34.222Z,3.83
2022-09-12T11:18:27.694Z,8.52
2022-09-12T11:21:22.235Z,2.22
2022-09-12T11:24:08.329Z,5.65
2022-09-12T11:27:00.831Z,2.47
2022-09-12T11:29:46.965Z,6.47
2022-09-12T11:32:46.955Z,3.95
2022-09-12T11:35:20.235Z,3.55
2022-09-12T11:38:07.550Z,2.80
2022-09-12T11:40:55.845Z,6.63
2022-09-12T11:43:33.250Z,2.40
2022-09-12T11:46:11.812Z,3.30
2022-09-12T11:49:00.583Z,4.97
2022-09-12T11:51:35.673Z,3.90
2022-09-12T11:54:12.239Z,2.78
2022-09-12T11:56:46.046Z,3.22
2022-09-12T11:59:37.598Z,4.18
2022-09-12T12:02:12.120Z,3.35
2022-09-12T12:04:49.029Z,3.28
2022-09-12T12:07:16.873Z,3.83
2022-09-12T12:09:50.917Z,1.98
2022-09-12T12:12:27.023Z,4.43
2022-09-12T12:14:56.406Z,5.18
2022-09-12T12:17:25.900Z,5.70
2022-09-12T12:20:06.463Z,2.35
2022-09-12T12:22:36.081Z,2.42
2022-09-12T12:25:14.759Z,1.85
2022-09-12T12:27:49.863Z,2.33
2022-09-12T12:30:28.971Z,4.88
2022-09-12T12:33:10.281Z,2.78
2022-09-12T12:35:40.484Z,2.33
2022-09-12T12:38:27.707Z,2.53
2022-09-12T12:41:14.621Z,2.00
2022-09-12T12:43:42.228Z,3.75
2022-09-12T12:46:14.896Z,1.55
2022-09-12T12:48:51.149Z,3.22
2022-09-12T12:51:36.442Z,1.85
2022-09-12T12:54:26.355Z,2.95
2022-09-12T12:57:06.334Z,2.97
2022-09-12T12:59:33.988Z,3.22
2022-09-12T13:02:01.824Z,2.08
2022-09-12T13:04:32.614Z,2.88
2022-09-12T13:07:08.455Z,2.03
2022-09-12T13:09:52.642Z,3.63
2022-09-12T13:12:26.738Z,3.83
2022-09-12T13:14:59.620Z,2.17
2022-09-12T13:17:43.520Z,3.42
2022-09-12T13:20:29.563Z,2.10
2022-09-12T13:22:57.908Z,2.22
2022-09-12T13:25:36.614Z,3.17
2022-09-12T13:28:12.973Z,2.45
2022-09-12T13:30:44.018Z,2.55
2022-09-12T13:33:45.417Z,2.95
2022-09-12T13:36:53.432Z,2.97
2022-09-12T13:39:39.324Z,2.40
2022-09-12T13:42:37.962Z,2.92
2022-09-12T13:45:24.771Z,2.20
2022-09-12T13:47:59.580Z,2.83
2022-09-12T13:50:31.865Z,2.05
2022-09-12T13:53:02.086Z,3.35
2022-09-12T13:55:40.112Z,2.15
2022-09-12T13:58:21.832Z,3.05
2022-09-12T14:01:13.414Z,3.67
2022-09-12T14:04:08.288Z,2.25
2022-09-12T14:06:50.229Z,3.17
2022-09-12T14:09:25.430Z,1.85
2022-09-12T14:11:53.888Z,2.13
2022-09-12T14:14:31.267Z,2.38
2022-09-12T14:16:58.996Z,3.92
2022-09-12T14:19:27.157Z,2.42
2022-09-12T14:21:55.089Z,2.65
2022-09-12T14:24:23.402Z,2.75
2022-09-12T14:26:54.105Z,4.75
2022-09-12T14:29:22.513Z,2.35
2022-09-12T14:32:01.995Z,4.07
2022-09-12T14:34:29.311Z,2.08
2022-09-12T14:36:57.572Z,3.03
2022-09-12T14:39:34.223Z,2.03
2022-09-12T14:42:06.813Z,3.03
2022-09-12T14:44:35.816Z,3.00
2022-09-12T14:47:21.584Z,4.55
2022-09-12T14:49:51.687Z,3.72
2022-09-12T14:52:26.368Z,3.25
2022-09-12T14:54:58.611Z,6.25
2022-09-12T14:57:33.321Z,3.67
2022-09-12T15:00:14.270Z,6.00
2022-09-12T15:02:45.739Z,6.03
2022-09-12T15:05:12.656Z,2.67
2022-09-12T15:07:47.609Z,2.80
2022-09-12T15:10:37.726Z,3.83
2022-09-12T15:13:11.881Z,8.15
2022-09-12T15:15:40.778Z,3.17
2022-09-12T15:18:08.675Z,3.13
2022-09-12T15:20:40.727Z,3.13
2022-09-12T15:23:14.700Z,2.58
2022-09-12T15:25:41.781Z,3.25
2022-09-12T15:28:24.211Z,2.67
2022-09-12T15:30:54.597Z,3.00
2022-09-12T15:33:24.703Z,2.92
2022-09-12T15:35:53.126Z,3.22
2022-09-12T15:38:24.410Z,3.38
2022-09-12T15:40:54.806Z,6.85
2022-09-12T15:43:22.700Z,4.80
2022-09-12T15:45:51.712Z,3.90
2022-09-12T15:48:20.581Z,4.90
2022-09-12T15:50:47.826Z,5.22
2022-09-12T15:53:16.570Z,3.83
2022-09-12T15:55:44.002Z,2.60
2022-09-12T15:58:11.078Z,2.40
2022-09-12T16:00:38.082Z,2.57
2022-09-12T16:03:05.235Z,2.30
2022-09-12T16:05:32.619Z,2.87
2022-09-12T16:08:00.940Z,2.50
2022-09-12T16:10:30.218Z,2.30
2022-09-12T16:12:58.074Z,3.37
2022-09-12T16:15:25.736Z,4.17
2022-09-12T16:17:53.800Z,3.30
2022-09-12T16:20:22.219Z,3.57
2022-09-12T16:22:49.393Z,3.57
2022-09-12T16:25:17.378Z,2.50
2022-09-12T16:27:44.812Z,4.87
2022-09-12T16:30:13.097Z,4.13
2022-09-12T16:32:40.727Z,3.70
2022-09-12T16:35:08.445Z,3.87
2022-09-12T16:37:35.837Z,3.30
2022-09-12T16:40:04.476Z,4.17
2022-09-12T16:42:31.704Z,14.73
2022-09-12T16:44:58.604Z,5.07
2022-09-12T16:47:25.748Z,5.90
2022-09-12T16:49:53.143Z,5.40
2022-09-12T16:52:20.382Z,4.77
2022-09-12T16:54:47.496Z,6.13
2022-09-12T16:57:14.621Z,5.43
2022-09-12T16:59:43.397Z,7.30
2022-09-12T17:02:14.655Z,6.90
2022-09-12T17:04:41.927Z,6.97
2022-09-12T17:07:09.208Z,5.53
2022-09-12T17:09:36.422Z,6.87
2022-09-12T17:12:05.074Z,5.23
2022-09-12T17:14:32.071Z,5.43
2022-09-12T17:17:00.604Z,6.33
2022-09-12T17:19:29.961Z,7.70
2022-09-12T17:21:57.764Z,5.77
2022-09-12T17:24:25.853Z,8.57
2022-09-12T17:26:53.818Z,8.37
2022-09-12T17:29:20.970Z,4.93
2022-09-12T17:31:50.948Z,4.57
2022-09-12T17:34:18.280Z,5.13
2022-09-12T17:36:45.810Z,4.30
2022-09-12T17:39:14.529Z,8.23
2022-09-12T17:41:46.085Z,9.10
2022-09-12T17:44:15.291Z,6.13
2022-09-12T17:46:44.708Z,9.83
2022-09-12T17:49:15.043Z,9.53
2022-09-12T17:51:44.024Z,8.70
2022-09-12T17:54:16.139Z,9.17
2022-09-12T17:56:46.644Z,8.00
2022-09-12T17:59:16.817Z,10.53
2022-09-12T18:02:03.482Z,10.67
2022-09-12T18:04:31.191Z,10.10
2022-09-12T18:07:00.336Z,7.80
2022-09-12T18:09:28.367Z,7.67
2022-09-12T18:11:56.428Z,8.77
2022-09-12T18:14:24.869Z,8.60
2022-09-12T18:16:52.557Z,9.73
2022-09-12T18:19:23.472Z,9.73
2022-09-12T18:21:50.575Z,8.23
2022-09-12T18:24:18.543Z,8.80
2022-09-12T18:26:46.135Z,8.53
2022-09-12T18:29:17.027Z,9.30
2022-09-12T18:31:45.060Z,12.20
2022-09-12T18:34:13.918Z,8.70
2022-09-12T18:36:42.346Z,6.33
2022-09-12T18:39:09.960Z,7.73
2022-09-12T18:41:38.058Z,7.87
2022-09-12T18:44:06.304Z,8.23
2022-09-12T18:46:35.603Z,16.30
2022-09-12T18:49:04.736Z,9.57
2022-09-12T18:51:36.058Z,8.93
2022-09-12T18:54:06.561Z,12.77
2022-09-12T18:56:43.607Z,7.80
2022-09-12T18:59:12.899Z,8.20
2022-09-12T19:01:40.435Z,7.30
2022-09-12T19:04:09.001Z,7.47
2022-09-12T19:06:37.411Z,5.73
2022-09-12T19:09:08.011Z,10.23
2022-09-12T19:11:36.906Z,7.33
2022-09-12T19:14:04.147Z,6.63
2022-09-12T19:16:31.878Z,6.83
2022-09-12T19:18:59.049Z,8.57
2022-09-12T19:21:28.591Z,7.37
2022-09-12T19:23:57.939Z,6.47
2022-09-12T19:26:25.268Z,7.70
2022-09-12T19:28:53.231Z,8.00
2022-09-12T19:31:21.200Z,7.07
2022-09-12T19:33:48.692Z,7.47
2022-09-12T19:36:44.376Z,4.93
2022-09-12T19:39:08.680Z,8.60
2022-09-12T19:41:36.270Z,5.97
2022-09-12T19:44:04.061Z,11.17
2022-09-12T19:46:31.356Z,9.53
2022-09-12T19:48:58.808Z,6.93
2022-09-12T19:51:26.569Z,9.80
2022-09-12T19:53:54.111Z,9.07
2022-09-12T19:56:21.909Z,5.47
2022-09-12T19:58:55.770Z,10.93
2022-09-12T20:01:25.770Z,8.83
2022-09-12T20:03:53.851Z,9.47
2022-09-12T20:06:20.906Z,6.40
2022-09-12T20:08:48.404Z,6.73
2022-09-12T20:11:17.636Z,5.97
2022-09-12T20:13:44.970Z,12.33
2022-09-12T20:16:19.028Z,5.97
2022-09-12T20:18:49.495Z,5.77
2022-09-12T20:21:18.105Z,5.47
2022-09-12T20:23:46.349Z,5.80
2022-09-12T20:26:13.806Z,11.47
2022-09-12T20:28:41.407Z,5.77
2022-09-12T20:31:12.633Z,9.47
2022-09-12T20:33:39.882Z,7.50
2022-09-12T20:36:11.220Z,5.83
2022-09-12T20:38:39.296Z,8.40
2022-09-12T20:41:07.042Z,7.07
2022-09-12T20:43:34.255Z,8.13
2022-09-12T20:46:04.822Z,7.83
2022-09-12T20:48:32.017Z,4.17
2022-09-12T20:50:59.771Z,5.97
2022-09-12T20:53:28.834Z,3.97
2022-09-12T20:55:58.825Z,7.43
2022-09-12T20:58:26.059Z,5.20
2022-09-12T21:00:52.995Z,6.30
2022-09-12T21:03:19.848Z,6.87
2022-09-12T21:05:46.868Z,5.77
2022-09-12T21:08:14.553Z,5.77
2022-09-12T21:10:42.144Z,6.13
2022-09-12T21:13:10.355Z,5.10
2022-09-12T21:15:38.544Z,4.73
2022-09-12T21:18:05.938Z,7.20
2022-09-12T21:20:33.401Z,7.27
2022-09-12T21:23:00.351Z,5.73
2022-09-12T21:25:28.926Z,7.17
2022-09-12T21:27:55.953Z,8.30
2022-09-12T21:30:23.053Z,8.83
2022-09-12T21:32:49.983Z,8.77
2022-09-12T21:35:16.975Z,9.10
2022-09-12T21:37:43.671Z,6.13
2022-09-12T21:40:10.608Z,8.10
2022-09-12T21:42:38.030Z,8.73
2022-09-12T21:45:05.222Z,8.47
2022-09-12T21:47:32.015Z,6.87
2022-09-12T21:49:59.318Z,8.60
2022-09-12T21:52:26.129Z,7.40
2022-09-12T21:54:52.876Z,5.47
2022-09-12T21:57:19.789Z,6.33
2022-09-12T21:59:46.660Z,7.63
2022-09-12T22:02:13.788Z,7.63
2022-09-12T22:04:40.776Z,9.03
2022-09-12T22:07:07.802Z,6.70
2022-09-12T22:09:35.213Z,8.20
2022-09-12T22:12:02.464Z,9.10
2022-09-12T22:14:29.599Z,9.10
2022-09-12T22:16:56.841Z,8.17
2022-09-12T22:19:23.895Z,9.03
2022-09-12T22:22:26.115Z,8.97
2022-09-12T22:24:53.941Z,7.87
2022-09-12T22:27:20.678Z,8.80
2022-09-12T22:29:49.579Z,11.03
2022-09-12T22:32:17.418Z,9.07
2022-09-12T22:34:44.689Z,10.13
2022-09-12T22:37:12.339Z,13.27
2022-09-12T22:39:39.933Z,16.00
2022-09-12T22:42:07.726Z,10.17
2022-09-12T22:44:34.551Z,11.13
2022-09-12T22:47:01.706Z,11.67
2022-09-12T22:49:28.727Z,10.53
2022-09-12T22:51:55.690Z,14.07
2022-09-12T22:54:22.382Z,9.77
2022-09-12T22:56:49.571Z,10.80
2022-09-12T22:59:16.346Z,9.37
2022-09-12T23:01:43.301Z,8.50
2022-09-12T23:04:10.695Z,9.17
2022-09-12T23:06:37.805Z,9.33
2022-09-12T23:09:04.703Z,10.20
2022-09-12T23:11:31.625Z,9.00
2022-09-12T23:13:58.488Z,10.40
2022-09-12T23:16:25.919Z,14.30
2022-09-12T23:18:52.857Z,11.73
2022-09-12T23:21:20.722Z,18.67
2022-09-12T23:23:48.502Z,18.93
2022-09-12T23:26:15.254Z,12.97
2022-09-12T23:28:46.813Z,20.43
2022-09-12T23:31:13.965Z,13.63
2022-09-12T23:33:40.696Z,13.10
2022-09-12T23:36:09.916Z,16.77
2022-09-12T23:38:36.874Z,10.77
2022-09-12T23:41:03.971Z,9.73
2022-09-12T23:43:31.016Z,12.13
2022-09-12T23:45:58.331Z,8.97
2022-09-12T23:48:25.218Z,11.60
2022-09-12T23:50:52.321Z,15.90
2022-09-12T23:53:19.989Z,13.37
2022-09-12T23:55:47.078Z,9.93
2022-09-12T23:58:13.770Z,13.63
